Time;durP1;ratioP1;P1;durP2;ratioP2;P2;SDS_P1;SDS_P2;PMS_P1;PMS_P2;Temp;Humidity;BMP_temperature;BMP_pressure;BME280_temperature;BME280_humidity;BME280_pressure;Samples;Min_cycle;Max_cycle;Signal;HPM_P1;HPM_P2
2023/01/24 00:01:19;;;;;;;21.38;13.18;;;2.20;99.90;;;1.11;100.00;98583.78;5048561;28;20033;-37
2023/01/24 00:03:45;;;;;;;22.02;13.98;;;2.20;99.90;;;1.18;100.00;98591.69;5037656;28;20491;-37
2023/01/24 00:06:11;;;;;;;22.95;13.45;;;2.20;99.90;;;1.17;100.00;98588.22;5045018;28;20127;-38
2023/01/24 00:08:37;;;;;;;24.33;13.82;;;2.20;99.90;;;1.18;100.00;98595.16;5048184;28;20043;-38
2023/01/24 00:11:07;;;;;;;23.98;14.82;;;2.20;99.90;;;1.10;100.00;98578.56;5045742;28;20032;-38
2023/01/24 00:13:34;;;;;;;23.83;13.75;;;2.10;99.90;;;1.19;100.00;98598.66;5043637;28;20043;-37
2023/01/24 00:16:13;;;;;;;24.48;13.80;;;2.10;99.90;;;1.16;100.00;98596.84;5042666;28;20459;-37
2023/01/24 00:18:39;;;;;;;23.15;13.98;;;2.10;99.90;;;1.15;100.00;98587.31;5043950;28;20540;-37
2023/01/24 00:21:09;;;;;;;20.67;12.90;;;2.10;99.90;;;1.19;100.00;98583.94;5045066;28;20064;-37
2023/01/24 00:23:36;;;;;;;25.65;13.63;;;2.10;99.90;;;1.07;100.00;98573.28;5058549;22;20029;-39
2023/01/24 00:26:03;;;;;;;23.40;13.40;;;2.10;99.90;;;1.17;100.00;98584.72;5060000;28;20051;-39
2023/01/24 00:28:30;;;;;;;22.92;13.68;;;2.20;99.90;;;1.16;100.00;98583.00;5065408;28;20027;-39
2023/01/24 00:30:55;;;;;;;23.08;13.50;;;2.20;99.90;;;1.22;100.00;98593.50;5058825;28;20145;-39
2023/01/24 00:33:21;;;;;;;21.08;13.50;;;2.20;99.90;;;1.18;100.00;98592.56;5066338;28;20117;-39
2023/01/24 00:35:50;;;;;;;23.10;13.55;;;2.20;99.90;;;1.21;100.00;98596.97;5046151;28;20163;-39
2023/01/24 00:38:15;;;;;;;21.60;13.18;;;2.20;99.90;;;1.14;100.00;98596.81;5043892;28;20029;-39
2023/01/24 00:40:41;;;;;;;22.15;12.95;;;2.20;99.90;;;1.14;100.00;98602.03;5043301;28;20117;-39
2023/01/24 00:43:07;;;;;;;23.15;13.48;;;2.10;99.90;;;1.17;100.00;98611.63;5037597;28;20566;-39
2023/01/24 00:45:38;;;;;;;21.65;13.18;;;2.10;99.90;;;1.14;100.00;98595.94;5038917;28;20054;-40
2023/01/24 00:48:06;;;;;;;22.00;13.63;;;2.20;99.90;;;1.15;100.00;98600.31;5043888;28;20058;-39
2023/01/24 00:50:33;;;;;;;21.75;13.15;;;2.10;99.90;;;1.18;100.00;98605.56;5041007;28;20647;-39
2023/01/24 00:52:59;;;;;;;21.30;13.27;;;2.20;99.90;;;1.15;100.00;98595.13;5043019;28;20488;-39
2023/01/24 00:55:25;;;;;;;21.58;13.07;;;2.20;99.90;;;1.16;100.00;98604.66;5041857;28;20059;-39
2023/01/24 00:57:51;;;;;;;24.05;14.35;;;2.10;99.90;;;1.18;100.00;98599.50;5046354;28;20465;-39
2023/01/24 01:00:17;;;;;;;23.48;13.93;;;2.10;99.90;;;1.15;100.00;98602.91;5040988;28;20111;-39
2023/01/24 01:02:43;;;;;;;22.95;13.38;;;2.20;99.90;;;1.14;100.00;98604.63;5047225;28;20621;-39
2023/01/24 01:05:08;;;;;;;20.38;13.60;;;2.20;99.90;;;1.14;100.00;98589.03;5049330;28;20081;-39
2023/01/24 01:07:34;;;;;;;21.02;13.02;;;2.20;99.90;;;1.18;100.00;98604.69;5050791;28;20033;-39
2023/01/24 01:10:00;;;;;;;20.23;13.10;;;2.20;99.90;;;1.20;100.00;98603.00;5053364;28;20067;-39
2023/01/24 01:12:26;;;;;;;20.88;12.52;;;2.20;99.90;;;1.17;100.00;98608.13;5049118;28;20213;-39
2023/01/24 01:14:52;;;;;;;19.42;11.88;;;2.20;99.90;;;1.24;100.00;98615.19;5048993;28;20488;-39
2023/01/24 01:17:17;;;;;;;21.05;12.82;;;2.20;99.90;;;1.20;100.00;98618.59;5048341;28;20028;-39
2023/01/24 01:19:43;;;;;;;20.58;13.05;;;2.20;99.90;;;1.17;100.00;98608.13;5047336;28;20037;-39
2023/01/24 01:22:09;;;;;;;22.13;13.63;;;2.20;99.90;;;1.03;100.00;98577.56;5044032;28;21621;-39
2023/01/24 01:24:35;;;;;;;26.00;14.43;;;2.20;99.90;;;1.19;100.00;98611.66;5043762;28;20418;-39
2023/01/24 01:27:01;;;;;;;20.80;13.43;;;2.10;99.90;;;1.23;100.00;98609.13;5045794;28;20923;-39
2023/01/24 01:29:26;;;;;;;23.65;13.27;;;2.20;99.90;;;1.22;100.00;98615.19;5047019;28;20535;-39
2023/01/24 01:31:52;;;;;;;23.23;13.25;;;2.20;99.90;;;1.24;100.00;98610.88;5044189;28;20067;-39
2023/01/24 01:34:18;;;;;;;21.23;12.10;;;2.20;99.90;;;1.22;100.00;98612.59;5048503;28;20558;-39
2023/01/24 01:36:44;;;;;;;20.60;12.65;;;2.20;99.90;;;1.20;100.00;98619.44;5045532;28;20024;-39
2023/01/24 01:39:10;;;;;;;21.48;12.82;;;2.20;99.90;;;1.26;100.00;98616.13;5046050;28;20032;-39
2023/01/24 01:41:36;;;;;;;21.67;12.68;;;2.20;99.90;;;1.23;100.00;98611.72;5034223;28;20128;-37
2023/01/24 01:44:47;;;;;;;23.70;12.70;;;2.20;99.90;;;1.24;100.00;98616.09;5036302;28;20102;-39
2023/01/24 01:47:31;;;;;;;20.17;13.45;;;2.20;99.90;;;1.22;100.00;98602.19;5039730;28;20071;-38
2023/01/24 01:50:15;;;;;;;22.40;13.52;;;2.20;99.90;;;1.23;100.00;98611.72;5047449;28;21827;-38
2023/01/24 01:52:42;;;;;;;23.25;12.98;;;2.20;99.90;;;1.24;100.00;98621.28;5047002;28;20037;-38
2023/01/24 01:55:18;;;;;;;21.35;12.68;;;2.30;99.90;;;1.14;100.00;98611.53;5046227;28;20040;-38
2023/01/24 01:57:47;;;;;;;22.55;13.00;;;2.20;99.90;;;1.25;100.00;98629.94;5048237;28;20600;-38
2023/01/24 02:00:20;;;;;;;22.92;13.45;;;2.20;99.90;;;1.23;100.00;98631.66;5036859;28;20028;-38
2023/01/24 02:02:50;;;;;;;19.85;13.10;;;2.20;99.90;;;1.30;100.00;98623.13;5037812;28;20060;-39
2023/01/24 02:05:22;;;;;;;20.92;12.70;;;2.20;99.90;;;1.31;100.00;98620.56;5034698;28;20095;-38
2023/01/24 02:07:57;;;;;;;23.20;13.55;;;2.20;99.90;;;1.24;100.00;98616.09;5038190;28;20033;-38
2023/01/24 02:11:37;;;;;;;22.65;11.75;;;2.30;99.90;;;1.22;100.00;98622.97;5045533;28;20051;-38
2023/01/24 02:13:10;;;;;;;21.38;11.95;;;2.20;99.90;;;1.24;100.00;98622.97;5043400;28;20040;-39
2023/01/24 02:18:21;;;;;;;23.33;13.00;;;2.20;99.90;;;1.27;100.00;98628.25;5047983;28;20529;-38
2023/01/24 02:20:49;;;;;;;19.20;11.57;;;2.20;99.90;;;1.27;100.00;98628.25;5050456;28;20487;-38
2023/01/24 02:23:48;;;;;;;23.17;13.52;;;2.30;99.90;;;1.24;100.00;98628.19;5043406;28;20394;-38
2023/01/24 02:26:28;;;;;;;24.25;13.38;;;2.30;99.90;;;1.26;100.00;98629.97;5047755;28;20040;-37
2023/01/24 02:28:59;;;;;;;20.98;13.57;;;2.20;99.90;;;1.20;100.00;98616.84;5041998;28;20037;-38
2023/01/24 02:31:25;;;;;;;20.85;12.80;;;2.20;99.90;;;1.24;100.00;98630.78;5035933;28;20043;-37
2023/01/24 02:33:51;;;;;;;20.90;12.25;;;2.20;99.90;;;1.21;100.00;98630.75;5038524;28;20036;-37
2023/01/24 02:36:35;;;;;;;19.05;11.63;;;2.20;99.90;;;1.20;100.00;98642.84;5042301;28;20048;-38
2023/01/24 02:39:14;;;;;;;23.40;12.82;;;2.20;99.90;;;1.20;100.00;98647.16;5039869;28;20629;-38
2023/01/24 02:41:50;;;;;;;21.50;12.57;;;2.20;99.90;;;1.20;100.00;98645.44;5038371;28;20053;-38
2023/01/24 02:44:28;;;;;;;21.20;12.93;;;2.20;99.90;;;1.20;100.00;98645.44;5035291;28;20105;-37
2023/01/24 02:46:54;;;;;;;23.25;12.90;;;2.20;99.90;;;1.23;100.00;98644.63;5033860;28;20121;-38
2023/01/24 02:49:19;;;;;;;20.45;12.25;;;2.20;99.90;;;1.23;100.00;98655.91;5040960;28;20024;-38
2023/01/24 02:54:29;;;;;;;20.65;12.25;;;2.20;99.90;;;1.24;100.00;98654.16;5043756;28;20106;-38
2023/01/24 02:59:39;;;;;;;21.30;12.73;;;2.20;99.90;;;1.09;100.00;98634.81;5034165;28;20137;-38
2023/01/24 03:02:05;;;;;;;20.25;12.00;;;2.20;99.90;;;1.25;100.00;98656.81;5041087;28;20036;-38
2023/01/24 03:04:30;;;;;;;19.42;12.25;;;2.20;99.90;;;1.26;100.00;98658.56;5035742;28;20037;-38
2023/01/24 03:06:56;;;;;;;22.02;12.88;;;2.20;99.90;;;1.30;100.00;98660.38;5041838;28;20492;-38
2023/01/24 03:09:33;;;;;;;22.48;12.77;;;2.20;99.90;;;1.29;100.00;98650.84;5031554;28;20029;-38
2023/01/24 03:36:40;;;;;;;20.40;12.55;;;2.10;99.90;;;1.20;100.00;98652.38;5040919;28;20110;-38
2023/01/24 03:41:50;;;;;;;20.83;12.63;;;2.20;99.90;;;1.27;100.00;98654.25;5042224;28;20125;-39
2023/01/24 03:44:15;;;;;;;20.45;12.32;;;2.20;99.90;;;1.20;100.00;98647.16;5037463;28;20124;-39
2023/01/24 03:46:41;;;;;;;21.92;14.05;;;2.20;99.90;;;1.17;100.00;98665.28;5043583;28;20036;-39
2023/01/24 03:49:08;;;;;;;25.25;13.38;;;2.20;99.90;;;1.15;100.00;98665.28;5045867;28;20028;-39
2023/01/24 03:54:18;;;;;;;21.17;13.48;;;2.10;99.90;;;1.15;100.00;98665.28;5040742;28;20604;-39
2023/01/24 03:56:44;;;;;;;22.88;13.80;;;2.10;99.90;;;1.16;100.00;98667.03;5043528;28;20032;-39
2023/01/24 03:59:09;;;;;;;22.70;14.15;;;2.10;99.90;;;1.16;100.00;98655.75;5041814;28;20105;-39
2023/01/24 04:01:35;;;;;;;21.90;14.00;;;2.10;99.90;;;1.12;100.00;98663.47;5041952;28;20036;-39
2023/01/24 04:04:01;;;;;;;22.60;13.93;;;2.10;99.90;;;1.22;100.00;98664.56;5041283;28;20060;-39
2023/01/24 04:06:27;;;;;;;21.67;13.32;;;2.10;99.90;;;1.14;100.00;98666.97;5047183;28;20124;-39
2023/01/24 04:08:52;;;;;;;24.52;13.85;;;2.10;99.90;;;1.15;100.00;98667.88;5044451;28;21247;-39
2023/01/24 04:11:18;;;;;;;25.38;14.30;;;2.20;99.90;;;1.12;100.00;98665.22;5048505;28;20068;-39
2023/01/24 04:13:44;;;;;;;22.52;14.10;;;2.10;99.90;;;1.12;100.00;98667.81;5040251;28;20167;-39
2023/01/24 04:16:10;;;;;;;25.48;14.18;;;2.10;99.90;;;1.10;100.00;98666.91;5045437;28;20036;-40
2023/01/24 04:18:38;;;;;;;21.98;13.48;;;2.10;99.90;;;1.14;100.00;98660.91;5042765;28;20110;-39
2023/01/24 04:21:04;;;;;;;23.10;13.52;;;2.10;99.90;;;1.14;100.00;98663.50;5047806;28;20102;-39
2023/01/24 04:23:31;;;;;;;21.48;13.07;;;2.10;99.90;;;1.10;100.00;98656.50;5043269;28;20028;-39
2023/01/24 04:25:59;;;;;;;23.80;14.60;;;2.10;99.90;;;1.21;100.00;98660.19;5044210;28;20040;-39
2023/01/24 04:28:26;;;;;;;24.17;13.57;;;2.10;99.90;;;1.14;100.00;98660.91;5043117;28;20040;-39
2023/01/24 04:31:00;;;;;;;22.95;13.65;;;2.10;99.90;;;1.21;100.00;98661.94;5041413;28;20109;-39
2023/01/24 04:33:26;;;;;;;26.08;14.38;;;2.10;99.90;;;1.13;100.00;98659.16;5042822;28;20032;-39
2023/01/24 04:35:57;;;;;;;25.13;14.20;;;2.10;99.90;;;1.12;100.00;98644.41;5045012;28;20219;-39
2023/01/24 04:38:23;;;;;;;23.95;13.50;;;2.10;99.90;;;1.12;100.00;98662.63;5045177;28;20028;-39
2023/01/24 04:41:00;;;;;;;19.80;12.57;;;2.10;99.90;;;1.13;100.00;98653.94;5041888;28;20680;-39
2023/01/24 04:43:26;;;;;;;25.48;13.02;;;2.10;99.90;;;1.16;100.00;98663.56;5044525;28;20122;-39
2023/01/24 04:45:56;;;;;;;23.17;13.43;;;2.10;99.90;;;1.13;100.00;98664.34;5039527;28;20541;-39
2023/01/24 04:48:22;;;;;;;23.70;13.85;;;2.10;99.90;;;1.17;100.00;98657.50;5049853;28;20613;-39
2023/01/24 04:50:47;;;;;;;24.52;13.63;;;2.10;99.90;;;1.14;100.00;98664.38;5050465;28;20296;-39
2023/01/24 04:53:13;;;;;;;24.10;14.10;;;2.10;99.90;;;1.19;100.00;98669.69;5044833;28;20559;-39
2023/01/24 04:55:38;;;;;;;24.05;13.77;;;2.10;99.90;;;1.14;100.00;98677.38;5046924;28;20433;-39
2023/01/24 04:58:04;;;;;;;24.58;14.00;;;2.20;99.90;;;1.23;100.00;98670.63;5047999;28;20338;-39
2023/01/24 05:00:30;;;;;;;22.65;13.75;;;2.20;99.90;;;1.14;100.00;98673.91;5042195;28;20059;-39
2023/01/24 05:02:56;;;;;;;23.77;14.50;;;2.20;99.90;;;1.10;100.00;98679.91;5050133;28;20116;-39
2023/01/24 05:05:21;;;;;;;24.85;14.23;;;2.10;99.90;;;1.11;100.00;98674.75;5047947;28;20123;-39
2023/01/24 05:07:47;;;;;;;24.50;14.10;;;2.10;99.90;;;1.10;100.00;98678.16;5044674;28;20814;-39
2023/01/24 05:10:13;;;;;;;24.45;14.32;;;2.10;99.90;;;1.12;100.00;98686.00;5042991;28;20221;-39
2023/01/24 05:12:38;;;;;;;22.45;14.02;;;2.10;99.90;;;1.13;100.00;98680.84;5048135;28;20040;-39
2023/01/24 05:15:05;;;;;;;28.55;14.77;;;2.10;99.90;;;1.14;100.00;98681.69;5052378;28;20150;-39
2023/01/24 05:17:30;;;;;;;23.42;14.05;;;2.10;99.90;;;1.12;100.00;98686.88;5052289;28;20104;-39
2023/01/24 05:19:56;;;;;;;23.77;13.45;;;2.10;99.90;;;1.14;100.00;98689.50;5045720;28;20036;-39
2023/01/24 05:22:22;;;;;;;27.55;14.07;;;2.10;99.90;;;1.21;100.00;98688.78;5050313;28;20091;-39
2023/01/24 05:24:47;;;;;;;26.33;14.80;;;2.10;99.90;;;1.17;100.00;98686.06;5047205;28;20578;-40
2023/01/24 05:27:13;;;;;;;24.45;14.30;;;2.10;99.90;;;1.14;100.00;98692.09;5049173;28;20085;-39
2023/01/24 05:29:39;;;;;;;23.60;13.32;;;2.10;99.90;;;1.15;100.00;98693.88;5045508;28;20781;-40
2023/01/24 05:32:04;;;;;;;26.13;14.65;;;2.10;99.90;;;1.18;100.00;98698.25;5045491;28;20036;-39
2023/01/24 05:34:30;;;;;;;22.80;13.63;;;2.10;99.90;;;1.23;100.00;98697.50;5039461;28;20043;-39
2023/01/24 05:36:56;;;;;;;24.42;13.70;;;2.20;99.90;;;1.22;100.00;98700.03;5043116;28;20693;-39
2023/01/24 05:39:21;;;;;;;25.30;13.70;;;2.20;99.90;;;1.17;100.00;98693.88;5047313;28;20036;-39
2023/01/24 05:41:48;;;;;;;27.33;14.95;;;2.20;99.90;;;1.23;100.00;98700.09;5046587;28;20036;-40
2023/01/24 05:44:14;;;;;;;26.85;14.52;;;2.20;99.90;;;1.25;100.00;98700.13;5036180;28;20165;-39
2023/01/24 05:46:39;;;;;;;25.52;14.82;;;2.20;99.90;;;1.21;100.00;98712.19;5042861;28;20028;-39
2023/01/24 05:49:05;;;;;;;26.65;14.85;;;2.20;99.90;;;1.23;100.00;98717.41;5045443;28;20128;-39
2023/01/24 05:51:31;;;;;;;24.60;13.75;;;2.20;99.90;;;1.16;100.00;98716.41;5035173;28;20411;-39
2023/01/24 05:53:56;;;;;;;26.15;14.98;;;2.10;99.90;;;1.14;100.00;98710.28;5040486;28;20034;-38
2023/01/24 05:56:22;;;;;;;25.73;14.05;;;2.10;99.90;;;1.15;100.00;98714.66;5043857;28;20036;-39
2023/01/24 05:58:48;;;;;;;23.65;13.02;;;2.10;99.90;;;1.16;100.00;98710.31;5044089;28;20092;-39
2023/01/24 06:01:18;;;;;;;22.20;13.95;;;2.10;99.90;;;1.16;100.00;98708.59;5036499;28;20300;-39
2023/01/24 06:03:50;;;;;;;26.08;14.73;;;2.10;99.90;;;1.16;100.00;98716.41;5031222;28;20038;-39
2023/01/24 06:06:21;;;;;;;31.15;16.60;;;2.20;99.90;;;1.10;100.00;98711.94;5038185;28;20033;-39
2023/01/24 06:08:48;;;;;;;29.27;16.02;;;2.20;99.90;;;1.16;100.00;98713.78;5023940;28;20182;-39
2023/01/24 06:11:19;;;;;;;29.55;16.40;;;2.10;99.90;;;1.18;100.00;98719.03;5041136;28;20033;-39
2023/01/24 06:13:45;;;;;;;28.13;15.77;;;2.10;99.90;;;1.12;100.00;98709.38;5048974;28;20059;-39
2023/01/24 06:16:21;;;;;;;25.70;15.02;;;2.20;99.90;;;1.13;100.00;98713.72;5046551;28;20132;-39
2023/01/24 06:18:48;;;;;;;26.55;14.48;;;2.20;99.90;;;1.13;100.00;98711.13;5040253;28;20047;-39
2023/01/24 06:21:29;;;;;;;25.10;15.30;;;2.10;99.90;;;1.16;100.00;98712.94;5046089;28;20087;-39
2023/01/24 06:26:33;;;;;;;28.88;15.70;;;2.10;99.90;;;1.21;100.00;98724.31;5026254;28;20084;-48
2023/01/24 06:28:59;;;;;;;28.50;16.08;;;2.10;99.90;;;1.25;100.00;98721.78;5029019;28;20043;-49
2023/01/24 06:32:05;;;;;;;26.05;14.70;;;2.20;99.90;;;1.23;100.00;98728.69;5027245;28;20440;-49
2023/01/24 06:34:57;;;;;;;29.60;16.10;;;2.20;99.90;;;1.21;100.00;98726.91;5025139;28;20034;-50
2023/01/24 06:37:48;;;;;;;29.00;16.08;;;2.20;99.90;;;1.20;100.00;98735.53;4991856;28;20397;-49
2023/01/24 06:40:19;;;;;;;26.55;15.20;;;2.20;99.90;;;1.15;100.00;98732.84;4995623;28;20642;-45
2023/01/24 06:42:45;;;;;;;26.35;14.98;;;2.20;99.90;;;1.12;100.00;98732.78;5011566;28;20107;-47
2023/01/24 06:45:12;;;;;;;29.13;15.23;;;2.10;99.90;;;1.12;100.00;98740.56;5010089;28;20056;-46
2023/01/24 06:47:37;;;;;;;27.33;15.57;;;2.10;99.90;;;1.12;100.00;98736.25;4996907;28;20036;-48
2023/01/24 06:50:06;;;;;;;25.30;14.68;;;2.10;99.90;;;1.14;100.00;98738.88;5010209;28;20053;-47
2023/01/24 06:52:31;;;;;;;30.63;15.82;;;2.10;99.90;;;1.14;100.00;98742.34;5012520;28;20033;-45
2023/01/24 06:54:57;;;;;;;26.88;15.63;;;2.10;99.90;;;1.08;100.00;98743.94;5013422;28;20116;-49
2023/01/24 06:57:23;;;;;;;28.58;15.88;;;2.10;99.90;;;1.16;100.00;98744.97;5009513;28;20037;-47
2023/01/24 06:59:48;;;;;;;29.90;16.05;;;2.10;99.90;;;1.19;100.00;98749.38;5010417;28;20496;-50
2023/01/24 07:02:14;;;;;;;27.98;15.68;;;2.10;99.90;;;1.13;100.00;98758.78;5013759;28;20072;-50
2023/01/24 07:04:40;;;;;;;29.27;16.10;;;2.10;99.90;;;1.11;100.00;98760.50;5009377;28;20459;-49
2023/01/24 07:07:06;;;;;;;26.95;15.18;;;2.10;99.90;;;1.09;100.00;98743.97;5008218;28;20037;-50
2023/01/24 07:09:32;;;;;;;29.00;16.23;;;2.10;99.90;;;1.09;100.00;98758.69;5007119;28;20347;-49
2023/01/24 07:11:58;;;;;;;29.20;16.77;;;2.10;99.90;;;1.09;100.00;98761.28;5009971;28;20083;-49
2023/01/24 07:14:24;;;;;;;27.13;15.65;;;2.10;99.90;;;1.10;100.00;98760.44;5011882;28;20285;-49
2023/01/24 07:16:51;;;;;;;25.95;14.40;;;2.00;99.90;;;1.12;100.00;98762.22;5008937;28;20026;-50
2023/01/24 07:19:21;;;;;;;26.17;15.20;;;2.10;99.90;;;1.07;100.00;98753.44;5008976;28;20139;-50
2023/01/24 07:21:48;;;;;;;33.55;16.77;;;2.10;99.90;;;1.06;100.00;98756.00;5008034;28;20033;-50
2023/01/24 07:24:18;;;;;;;26.63;15.38;;;2.10;99.90;;;1.13;100.00;98765.69;5005491;28;20044;-46
2023/01/24 07:26:44;;;;;;;27.88;15.32;;;2.10;99.90;;;1.08;100.00;98776.00;4991322;28;23162;-49
2023/01/24 07:29:11;;;;;;;28.20;16.38;;;2.10;99.90;;;1.05;100.00;98773.31;5008915;28;20057;-50
2023/01/24 07:31:37;;;;;;;29.75;16.23;;;2.00;99.90;;;1.04;100.00;98783.69;5007212;28;20033;-48
2023/01/24 07:34:03;;;;;;;32.80;16.67;;;2.00;99.90;;;0.98;100.00;98768.81;5006848;28;20517;-50
2023/01/24 07:36:28;;;;;;;27.42;15.82;;;2.00;99.90;;;1.01;100.00;98781.03;5012056;28;20112;-50
2023/01/24 07:38:57;;;;;;;27.63;14.80;;;2.00;99.90;;;1.02;100.00;98785.38;5010566;28;20560;-49
2023/01/24 07:41:23;;;;;;;30.17;15.63;;;2.00;99.90;;;1.05;100.00;98781.13;5011809;28;20035;-49
2023/01/24 07:43:49;;;;;;;25.80;14.93;;;2.00;99.90;;;1.07;100.00;98783.75;5010294;28;20025;-50
2023/01/24 07:46:15;;;;;;;28.80;16.25;;;2.00;99.90;;;1.09;100.00;98789.88;5010992;28;20032;-48
2023/01/24 07:48:40;;;;;;;28.10;14.57;;;2.00;99.90;;;1.12;100.00;98792.53;5011616;28;20036;-45
2023/01/24 07:51:06;;;;;;;28.50;14.73;;;2.10;99.90;;;1.14;100.00;98791.72;5006163;28;20111;-49
2023/01/24 07:53:32;;;;;;;24.88;14.15;;;2.10;99.90;;;1.17;100.00;98796.13;5004307;28;20370;-47
2023/01/24 07:56:02;;;;;;;27.83;14.90;;;2.10;99.90;;;1.22;100.00;98799.72;5005437;28;20060;-48
2023/01/24 07:58:29;;;;;;;27.77;15.27;;;2.20;99.90;;;1.21;100.00;98800.53;5007564;28;20519;-49
2023/01/24 08:00:55;;;;;;;26.10;14.15;;;2.20;99.90;;;1.24;100.00;98808.41;5004461;28;20507;-48
2023/01/24 08:03:21;;;;;;;24.85;14.18;;;2.20;99.90;;;1.28;100.00;98810.22;5006585;28;20030;-47
2023/01/24 08:05:46;;;;;;;29.17;15.45;;;2.20;99.90;;;1.28;100.00;98814.56;5009404;28;20507;-47
2023/01/24 08:08:12;;;;;;;27.85;15.00;;;2.20;99.90;;;1.28;100.00;98817.16;5007575;28;20103;-47
2023/01/24 08:10:38;;;;;;;27.85;14.43;;;2.20;99.90;;;1.11;100.00;98790.78;5014384;28;20489;-49
2023/01/24 08:13:03;;;;;;;31.45;15.07;;;2.20;99.90;;;1.28;100.00;98817.16;5011564;28;20025;-46
2023/01/24 08:15:29;;;;;;;27.45;14.27;;;2.20;99.90;;;1.31;100.00;98819.81;5014557;28;20065;-49
2023/01/24 08:17:55;;;;;;;25.75;13.98;;;2.30;99.90;;;1.32;100.00;98817.25;5014907;28;20056;-48
2023/01/24 08:20:21;;;;;;;26.60;15.13;;;2.30;99.90;;;1.32;100.00;98822.44;5008467;28;20608;-49
2023/01/24 08:22:47;;;;;;;30.00;15.45;;;2.30;99.90;;;1.29;100.00;98830.19;5011543;28;20041;-50
2023/01/24 08:25:12;;;;;;;27.38;15.25;;;2.30;99.90;;;1.29;100.00;98826.69;5015642;28;20041;-50
2023/01/24 08:27:42;;;;;;;27.52;14.98;;;2.30;99.90;;;1.34;100.00;98828.56;5013972;28;20033;-49
2023/01/24 08:30:10;;;;;;;29.70;14.73;;;2.30;99.90;;;1.36;100.00;98828.59;5014479;28;20150;-51
2023/01/24 08:32:37;;;;;;;28.23;15.15;;;2.30;99.90;;;1.39;100.00;98833.00;5012519;28;20042;-49
2023/01/24 08:35:04;;;;;;;26.65;14.15;;;2.30;99.90;;;1.51;100.00;98839.34;5014045;28;20032;-48
2023/01/24 08:37:29;;;;;;;25.92;14.20;;;2.40;99.90;;;1.48;100.00;98839.28;5013751;28;20025;-51
2023/01/24 08:39:56;;;;;;;26.30;14.95;;;2.40;99.90;;;1.49;100.00;98841.03;5017667;28;20048;-49
2023/01/24 08:42:23;;;;;;;24.58;14.48;;;2.50;99.90;;;1.49;100.00;98843.63;5017007;28;20520;-48
2023/01/24 08:44:50;;;;;;;25.85;13.63;;;2.40;99.90;;;1.60;100.00;98841.28;5016216;28;20078;-50
2023/01/24 08:47:15;;;;;;;27.00;14.65;;;2.50;99.90;;;1.52;100.00;98848.00;5017667;28;20111;-47
2023/01/24 08:49:41;;;;;;;32.30;14.68;;;2.50;99.90;;;1.47;100.00;98847.03;5016661;28;20469;-50
2023/01/24 08:52:07;;;;;;;26.25;14.75;;;2.50;99.90;;;1.52;100.00;98853.22;5011599;28;20054;-50
2023/01/24 08:54:35;;;;;;;25.90;14.57;;;2.50;99.90;;;1.55;100.00;98845.50;5012284;28;20113;-49
2023/01/24 08:57:05;;;;;;;26.92;14.10;;;2.50;99.90;;;1.58;100.00;98848.16;5014650;28;20034;-48
2023/01/24 08:59:30;;;;;;;27.67;15.10;;;2.50;99.90;;;1.59;100.00;98859.44;5017886;28;20041;-50
2023/01/24 09:01:56;;;;;;;29.98;15.05;;;2.60;99.90;;;1.62;100.00;98864.72;5018573;28;20033;-47
2023/01/24 09:04:22;;;;;;;25.40;14.60;;;2.60;99.90;;;1.61;100.00;98857.75;5012549;28;20591;-46
2023/01/24 09:06:50;;;;;;;27.17;14.57;;;2.60;99.90;;;1.64;100.00;98855.22;5009721;28;20030;-48
2023/01/24 09:09:16;;;;;;;27.00;15.07;;;2.60;99.90;;;1.73;100.00;98857.16;5011886;28;20034;-48
2023/01/24 09:11:42;;;;;;;26.30;14.50;;;2.60;99.90;;;1.69;100.00;98858.81;5015620;28;20199;-50
2023/01/24 09:14:07;;;;;;;24.98;13.70;;;2.70;99.90;;;1.76;100.00;98854.59;5012830;28;20034;-53
2023/01/24 09:16:33;;;;;;;24.85;14.52;;;2.70;99.90;;;1.75;100.00;98858.06;5013266;28;20496;-47
2023/01/24 09:18:59;;;;;;;28.65;15.45;;;2.70;99.90;;;1.68;100.00;98846.63;5013502;28;20536;-53
2023/01/24 09:21:25;;;;;;;25.88;14.65;;;2.70;99.90;;;1.72;100.00;98858.84;4993629;28;22707;-51
2023/01/24 09:23:54;;;;;;;24.92;14.10;;;2.70;99.90;;;1.71;100.00;98857.13;5013847;28;20033;-50
2023/01/24 09:26:20;;;;;;;28.55;13.32;;;2.70;99.90;;;1.75;100.00;98868.47;5013057;28;20034;-50
2023/01/24 09:28:46;;;;;;;25.30;14.40;;;2.70;99.90;;;1.79;100.00;98867.69;5014549;28;20173;-53
2023/01/24 09:31:12;;;;;;;21.83;13.57;;;2.70;99.90;;;1.81;100.00;98865.97;5015492;28;20025;-53
2023/01/24 09:33:38;;;;;;;24.77;14.30;;;2.70;99.90;;;1.76;100.00;98865.91;5013967;28;20037;-48
2023/01/24 09:36:05;;;;;;;27.23;14.20;;;2.80;99.90;;;1.71;100.00;98868.38;5012643;28;20115;-50
2023/01/24 09:38:32;;;;;;;25.08;13.85;;;2.80;99.90;;;1.81;100.00;98869.47;5006694;28;20116;-50
2023/01/24 09:41:18;;;;;;;23.33;12.80;;;2.80;99.90;;;1.81;100.00;98874.69;5009608;28;20059;-48
2023/01/24 09:44:15;;;;;;;24.33;13.57;;;2.80;99.90;;;1.80;100.00;98878.13;5012447;28;20041;-47
2023/01/24 09:46:43;;;;;;;24.77;13.70;;;2.80;99.90;;;1.83;100.00;98873.00;5010423;28;20061;-51
2023/01/24 09:49:46;;;;;;;21.80;12.77;;;2.80;99.90;;;1.86;100.00;98877.38;4995225;28;20034;-50
2023/01/24 09:52:23;;;;;;;25.48;13.75;;;2.80;99.90;;;1.83;100.00;98877.28;5013663;28;20025;-49
2023/01/24 09:55:03;;;;;;;25.13;13.75;;;2.80;99.90;;;1.84;100.00;98879.06;5014845;28;20493;-50
2023/01/24 09:58:01;;;;;;;25.38;13.68;;;2.80;99.90;;;1.87;100.00;98872.19;5011924;28;20132;-49
2023/01/24 10:00:37;;;;;;;22.17;13.10;;;2.80;99.90;;;1.87;100.00;98879.13;5008818;28;20048;-51
2023/01/24 10:03:17;;;;;;;20.38;12.30;;;2.90;99.90;;;1.95;100.00;98874.94;5011655;28;20045;-50
2023/01/24 10:05:48;;;;;;;24.50;13.10;;;2.90;99.90;;;1.95;100.00;98872.34;4994564;28;20103;-50
2023/01/24 10:08:38;;;;;;;23.25;13.43;;;2.90;99.90;;;1.94;100.00;98878.41;4991111;28;20041;-51
2023/01/24 10:11:36;;;;;;;20.80;12.18;;;2.90;99.90;;;2.01;100.00;98880.31;5011649;28;20086;-50
2023/01/24 10:14:37;;;;;;;19.60;11.80;;;3.00;99.90;;;2.00;100.00;98877.66;4996513;28;20441;-51
2023/01/24 10:17:22;;;;;;;21.92;11.65;;;2.90;99.90;;;2.02;100.00;98887.25;5014193;28;20045;-52
2023/01/24 10:19:51;;;;;;;17.65;10.73;;;3.00;99.90;;;2.03;100.00;98880.34;5012319;28;20025;-49
2023/01/24 10:23:00;;;;;;;17.55;10.77;;;3.00;99.90;;;2.10;100.00;98877.03;4992755;28;20099;-51
2023/01/24 10:25:48;;;;;;;19.30;10.32;;;3.10;99.90;;;2.07;100.00;98872.63;4989692;28;20029;-51
2023/01/24 10:28:22;;;;;;;18.15;10.27;;;3.00;99.90;;;2.09;100.00;98870.03;5014235;28;20061;-48
2023/01/24 10:31:08;;;;;;;16.25;9.35;;;3.10;99.90;;;2.17;100.00;98871.09;5014311;28;20559;-48
2023/01/24 10:33:44;;;;;;;17.85;9.95;;;3.10;99.90;;;2.16;100.00;98869.31;5010236;28;20419;-47
2023/01/24 10:36:51;;;;;;;14.63;9.23;;;3.10;99.90;;;2.29;100.00;98860.91;4995994;28;20160;-49
2023/01/24 10:39:17;;;;;;;16.20;9.32;;;3.20;99.90;;;2.30;100.00;98872.22;4996773;28;20037;-50
2023/01/24 10:41:42;;;;;;;20.05;9.90;;;3.30;99.90;;;2.33;100.00;98872.25;5012711;28;20033;-50
2023/01/24 10:44:17;;;;;;;17.27;9.15;;;3.30;99.90;;;2.22;100.00;98869.44;4994363;28;20576;-49
2023/01/24 10:47:28;;;;;;;14.82;9.30;;;3.30;99.90;;;2.26;100.00;98863.47;4980000;28;20041;-51
2023/01/24 10:50:00;;;;;;;14.93;8.52;;;3.20;99.90;;;2.15;100.00;98856.28;4999711;28;20485;-52
2023/01/24 10:52:27;;;;;;;14.20;8.48;;;3.20;99.90;;;2.16;100.00;98869.31;5011617;28;20037;-51
2023/01/24 10:54:58;;;;;;;14.57;8.70;;;3.20;99.90;;;2.24;100.00;98862.56;4992058;28;20030;-52
2023/01/24 10:57:31;;;;;;;16.10;9.35;;;3.20;99.90;;;2.31;100.00;98855.72;4991700;28;20214;-49
2023/01/24 11:00:20;;;;;;;17.80;9.68;;;3.30;99.90;;;2.36;100.00;98854.09;5012585;28;20044;-49
2023/01/24 11:03:04;;;;;;;19.15;9.85;;;3.30;99.90;;;2.36;100.00;98854.09;5012390;28;20048;-50
2023/01/24 11:05:54;;;;;;;14.60;9.18;;;3.40;99.90;;;2.41;100.00;98854.19;5010007;28;20048;-49